Time;durP1;ratioP1;P1;durP2;ratioP2;P2;SDS_P1;SDS_P2;PMS_P1;PMS_P2;Temp;Humidity;BMP_temperature;BMP_pressure;BME280_temperature;BME280_humidity;BME280_pressure;Samples;Min_cycle;Max_cycle;Signal;HPM_P1;HPM_P2
2022/02/23 00:01:24;;;;;;;23.48;3.83;;;5.50;90.00;;;;;;5063015;28;20048;-84
2022/02/23 00:03:50;;;;;;;20.92;4.22;;;5.50;90.10;;;;;;5072402;28;20059;-84
2022/02/23 00:06:16;;;;;;;20.23;3.63;;;5.40;90.40;;;;;;5070678;28;20094;-84
2022/02/23 00:08:41;;;;;;;25.17;4.25;;;5.40;90.60;;;;;;5069769;28;20033;-82
2022/02/23 00:11:07;;;;;;;20.52;3.88;;;5.50;90.50;;;;;;5062212;28;20435;-82
2022/02/23 00:13:32;;;;;;;24.63;4.22;;;5.50;90.60;;;;;;5078465;28;20017;-84
2022/02/23 00:15:58;;;;;;;20.85;3.58;;;5.50;90.50;;;;;;5072635;28;20025;-82
2022/02/23 00:18:23;;;;;;;22.27;3.63;;;5.50;90.70;;;;;;5063223;28;20055;-83
2022/02/23 00:20:50;;;;;;;27.02;4.50;;;5.50;90.70;;;;;;5054880;28;20028;-83
2022/02/23 00:23:17;;;;;;;26.45;4.25;;;5.50;90.60;;;;;;5068040;28;20388;-83
2022/02/23 00:25:43;;;;;;;24.98;4.00;;;5.40;90.90;;;;;;5068710;28;20040;-83
2022/02/23 00:28:08;;;;;;;21.75;3.90;;;5.40;90.90;;;;;;5062085;28;20025;-83
2022/02/23 00:30:34;;;;;;;19.33;4.20;;;5.40;90.90;;;;;;5068025;28;20028;-83
2022/02/23 00:32:59;;;;;;;24.08;4.00;;;5.40;90.90;;;;;;5063852;28;20087;-83
2022/02/23 00:35:25;;;;;;;14.48;2.85;;;5.30;91.10;;;;;;5070756;28;20024;-83
2022/02/23 00:37:50;;;;;;;23.30;4.18;;;5.20;91.10;;;;;;5066292;28;20051;-83
2022/02/23 00:40:16;;;;;;;24.55;3.72;;;5.30;91.20;;;;;;5067110;28;20032;-83
2022/02/23 00:42:42;;;;;;;18.45;3.08;;;5.20;91.30;;;;;;5069972;28;20033;-83
2022/02/23 00:45:08;;;;;;;23.23;4.18;;;5.20;91.20;;;;;;5070953;28;20032;-83
2022/02/23 00:47:33;;;;;;;26.02;4.60;;;5.20;90.90;;;;;;5067512;28;20442;-83
2022/02/23 00:49:59;;;;;;;29.02;5.55;;;5.20;91.00;;;;;;5064237;28;20052;-83
2022/02/23 00:52:24;;;;;;;32.33;4.43;;;5.20;91.10;;;;;;5071884;28;20028;-83
2022/02/23 00:54:50;;;;;;;23.50;4.40;;;5.20;91.10;;;;;;5063563;28;20032;-83
2022/02/23 00:57:15;;;;;;;22.85;3.67;;;5.20;91.10;;;;;;5071692;28;20040;-83
2022/02/23 00:59:43;;;;;;;18.35;3.83;;;5.30;90.90;;;;;;5068999;28;20444;-83
2022/02/23 01:02:09;;;;;;;27.65;3.80;;;5.30;90.60;;;;;;5068081;28;20119;-83
2022/02/23 01:04:34;;;;;;;28.65;4.13;;;5.30;90.80;;;;;;5068705;28;20548;-83
2022/02/23 01:07:00;;;;;;;22.88;4.05;;;5.30;90.80;;;;;;5067593;28;20463;-83
2022/02/23 01:09:25;;;;;;;20.60;3.95;;;5.40;90.70;;;;;;5072393;28;20055;-83
2022/02/23 01:11:51;;;;;;;19.85;3.42;;;5.30;90.90;;;;;;5065892;28;20048;-83
2022/02/23 01:14:17;;;;;;;23.30;4.10;;;5.40;90.90;;;;;;5064611;28;20017;-83
2022/02/23 01:16:43;;;;;;;24.40;3.13;;;5.40;90.70;;;;;;5066341;28;20026;-82
2022/02/23 01:19:08;;;;;;;31.83;4.35;;;5.40;90.90;;;;;;5063309;28;20427;-82
2022/02/23 01:21:34;;;;;;;18.55;3.55;;;5.40;90.80;;;;;;5073114;28;20059;-83
2022/02/23 01:23:59;;;;;;;20.10;4.07;;;5.40;90.80;;;;;;5085653;28;20369;-82
2022/02/23 01:26:25;;;;;;;20.90;4.10;;;5.50;90.70;;;;;;5072054;28;20035;-83
2022/02/23 01:28:50;;;;;;;19.65;4.22;;;5.50;90.60;;;;;;5069717;28;20036;-82
2022/02/23 01:31:16;;;;;;;17.58;3.22;;;5.50;90.70;;;;;;5068595;28;20397;-83
2022/02/23 01:33:42;;;;;;;20.63;4.43;;;5.50;90.60;;;;;;5067672;28;20087;-82
2022/02/23 01:36:07;;;;;;;23.95;3.90;;;5.70;90.00;;;;;;5063561;28;20025;-83
2022/02/23 01:38:33;;;;;;;17.70;4.15;;;5.60;90.00;;;;;;5070349;28;20028;-83
2022/02/23 01:41:01;;;;;;;26.85;4.82;;;5.60;90.10;;;;;;5056014;28;20040;-83
2022/02/23 01:43:27;;;;;;;19.88;4.65;;;5.60;90.20;;;;;;5080041;28;20449;-83
2022/02/23 01:45:53;;;;;;;19.75;3.60;;;5.60;90.20;;;;;;5059818;28;20042;-83
2022/02/23 01:48:19;;;;;;;24.75;4.00;;;5.70;89.90;;;;;;5069309;28;20499;-83
2022/02/23 01:50:45;;;;;;;21.67;3.63;;;5.60;89.90;;;;;;5062209;28;20048;-83
2022/02/23 01:53:10;;;;;;;22.42;4.63;;;5.70;89.90;;;;;;5065230;28;20032;-82
2022/02/23 01:55:36;;;;;;;26.25;4.35;;;5.60;90.10;;;;;;5063003;28;20067;-83
2022/02/23 01:58:04;;;;;;;22.85;3.78;;;5.60;89.90;;;;;;5065387;28;20036;-83
2022/02/23 02:00:30;;;;;;;23.23;4.07;;;5.70;89.90;;;;;;5081062;28;20465;-83
2022/02/23 02:02:55;;;;;;;23.50;4.03;;;5.70;89.50;;;;;;5065980;28;20024;-83
2022/02/23 02:05:21;;;;;;;20.60;4.28;;;5.70;89.50;;;;;;5060201;28;20493;-83
2022/02/23 02:07:46;;;;;;;24.60;3.83;;;5.70;89.50;;;;;;5058712;28;20037;-83
2022/02/23 02:10:12;;;;;;;22.05;3.72;;;5.80;89.20;;;;;;5056852;28;20432;-82
2022/02/23 02:12:38;;;;;;;28.70;4.47;;;5.70;89.40;;;;;;5065975;28;20021;-82
2022/02/23 02:15:05;;;;;;;19.10;3.25;;;5.60;89.60;;;;;;5070956;28;20035;-83
2022/02/23 02:17:31;;;;;;;19.25;3.85;;;5.60;89.90;;;;;;5079749;28;20499;-82
2022/02/23 02:19:57;;;;;;;17.00;3.63;;;5.70;89.60;;;;;;5066942;28;20033;-83
2022/02/23 02:22:22;;;;;;;28.83;4.40;;;5.60;89.70;;;;;;5065532;28;20177;-83
2022/02/23 02:24:48;;;;;;;30.92;4.55;;;5.60;89.70;;;;;;5073168;28;20484;-83
2022/02/23 02:27:15;;;;;;;29.15;4.75;;;5.60;90.00;;;;;;5084860;28;20111;-83
2022/02/23 02:29:42;;;;;;;24.88;4.65;;;5.50;90.00;;;;;;5073362;28;20488;-83
2022/02/23 02:32:09;;;;;;;26.08;4.40;;;5.50;90.30;;;;;;5070228;28;20029;-83
2022/02/23 02:34:36;;;;;;;22.45;4.57;;;5.50;90.30;;;;;;5071574;28;20032;-83
2022/02/23 02:37:02;;;;;;;18.27;3.83;;;5.50;90.10;;;;;;5064084;28;20023;-83
2022/02/23 02:39:29;;;;;;;22.75;3.88;;;5.60;90.10;;;;;;5065345;28;20035;-83
2022/02/23 02:41:55;;;;;;;26.60;4.03;;;5.50;90.20;;;;;;5083090;28;20020;-83
2022/02/23 02:44:21;;;;;;;29.05;4.28;;;5.50;90.20;;;;;;5073419;28;20025;-83
2022/02/23 02:46:46;;;;;;;24.52;4.47;;;5.40;90.20;;;;;;5068442;28;20112;-83
2022/02/23 02:49:13;;;;;;;28.02;4.22;;;5.50;90.20;;;;;;5084383;28;20029;-83
2022/02/23 02:51:39;;;;;;;21.95;3.70;;;5.40;90.40;;;;;;5065240;28;20045;-83
2022/02/23 02:54:06;;;;;;;24.15;3.90;;;5.40;90.40;;;;;;5064268;28;20025;-83
2022/02/23 02:56:32;;;;;;;23.13;4.40;;;5.40;90.50;;;;;;5070181;28;20027;-83
2022/02/23 02:58:59;;;;;;;23.58;4.10;;;5.40;90.70;;;;;;5073845;28;20032;-82
2022/02/23 03:01:26;;;;;;;18.70;3.13;;;5.40;90.80;;;;;;5068448;28;20056;-82
2022/02/23 03:03:52;;;;;;;22.48;3.72;;;5.30;90.80;;;;;;5064567;28;20404;-83
2022/02/23 03:06:19;;;;;;;19.50;3.50;;;5.30;90.80;;;;;;5071274;28;20020;-84
2022/02/23 03:08:46;;;;;;;28.67;3.47;;;5.30;90.80;;;;;;5070076;28;20029;-82
2022/02/23 03:11:13;;;;;;;34.42;4.90;;;5.30;90.90;;;;;;5071391;28;20063;-83
2022/02/23 03:13:39;;;;;;;22.63;3.67;;;5.30;90.90;;;;;;5073190;28;20381;-83
2022/02/23 03:16:07;;;;;;;24.20;4.35;;;5.30;90.90;;;;;;5069713;28;20161;-82
2022/02/23 03:18:33;;;;;;;29.35;4.20;;;5.20;91.00;;;;;;5069592;28;20051;-83
2022/02/23 03:20:59;;;;;;;23.60;4.22;;;5.20;91.00;;;;;;5071984;28;20104;-82
2022/02/23 03:23:25;;;;;;;21.88;4.07;;;5.30;90.80;;;;;;5088305;28;20166;-83
2022/02/23 03:25:50;;;;;;;22.92;3.63;;;5.30;90.80;;;;;;5072193;28;20067;-83
2022/02/23 03:28:16;;;;;;;26.70;4.28;;;5.30;90.80;;;;;;5072668;28;20020;-82
2022/02/23 03:30:41;;;;;;;22.60;4.13;;;5.30;90.90;;;;;;5071434;28;20033;-82
2022/02/23 03:33:09;;;;;;;29.90;5.05;;;5.30;90.80;;;;;;5067835;28;20469;-83
2022/02/23 03:35:36;;;;;;;24.25;4.78;;;5.30;90.60;;;;;;5065998;28;20032;-83
2022/02/23 03:38:02;;;;;;;21.60;4.22;;;5.30;90.40;;;;;;5073696;28;20032;-83
2022/02/23 03:40:28;;;;;;;29.23;3.85;;;5.30;90.20;;;;;;5067951;28;20996;-83
2022/02/23 03:42:54;;;;;;;25.02;3.40;;;5.30;90.30;;;;;;5073013;28;20032;-83
2022/02/23 03:45:19;;;;;;;20.73;4.03;;;5.40;89.90;;;;;;5066818;28;20465;-83
2022/02/23 03:47:45;;;;;;;26.25;4.47;;;5.40;89.70;;;;;;5066715;28;20150;-83
2022/02/23 03:50:12;;;;;;;25.92;3.80;;;5.40;89.70;;;;;;5069132;28;20352;-83
2022/02/23 03:52:38;;;;;;;24.77;4.15;;;5.40;89.90;;;;;;5059501;28;20454;-83
2022/02/23 03:55:05;;;;;;;22.85;3.40;;;5.40;90.00;;;;;;5069154;28;20052;-83
2022/02/23 03:57:30;;;;;;;20.05;3.60;;;5.30;90.00;;;;;;5073721;28;20021;-83
2022/02/23 03:59:56;;;;;;;21.33;3.95;;;5.40;89.80;;;;;;5070962;28;20017;-82
2022/02/23 04:02:21;;;;;;;22.83;3.70;;;5.40;89.70;;;;;;5067098;28;20036;-83
2022/02/23 04:04:47;;;;;;;24.30;5.00;;;5.40;89.60;;;;;;5066758;28;20457;-82
2022/02/23 04:07:12;;;;;;;18.27;2.60;;;5.40;89.70;;;;;;5061283;28;20033;-83
2022/02/23 04:09:38;;;;;;;28.15;3.78;;;5.40;89.70;;;;;;5063782;28;20029;-82
2022/02/23 04:12:04;;;;;;;25.90;4.00;;;5.40;89.80;;;;;;5059650;28;20078;-83
2022/02/23 04:14:30;;;;;;;27.67;4.63;;;5.40;89.90;;;;;;5074436;28;20483;-83
2022/02/23 04:16:55;;;;;;;28.90;4.07;;;5.40;89.80;;;;;;5070997;28;20499;-83
2022/02/23 04:19:21;;;;;;;18.75;3.83;;;5.40;89.80;;;;;;5066529;28;20075;-83
2022/02/23 04:21:46;;;;;;;18.27;3.45;;;5.40;89.60;;;;;;5069282;28;20481;-83
2022/02/23 04:24:12;;;;;;;17.10;3.78;;;5.40;89.60;;;;;;5071181;28;20135;-83
2022/02/23 04:26:37;;;;;;;22.73;3.88;;;5.40;89.60;;;;;;5070332;28;20538;-83
2022/02/23 04:29:04;;;;;;;22.20;4.53;;;5.30;89.70;;;;;;5071898;28;20399;-83
2022/02/23 04:31:32;;;;;;;19.08;3.05;;;5.40;89.60;;;;;;5066274;28;20032;-82
2022/02/23 04:34:01;;;;;;;26.85;3.63;;;5.30;89.90;;;;;;5071026;28;20158;-82
2022/02/23 04:36:27;;;;;;;27.85;3.55;;;5.30;90.00;;;;;;5069507;28;20024;-83
2022/02/23 04:38:53;;;;;;;16.58;3.20;;;5.20;90.10;;;;;;5068153;28;20030;-83
2022/02/23 04:41:19;;;;;;;26.10;4.60;;;5.20;90.30;;;;;;5062410;28;20127;-82
2022/02/23 04:43:44;;;;;;;18.98;3.65;;;5.20;90.30;;;;;;5062411;28;20078;-82
2022/02/23 04:46:13;;;;;;;23.58;4.03;;;5.20;90.10;;;;;;5070271;28;20021;-83
2022/02/23 04:48:41;;;;;;;26.17;4.28;;;5.20;90.00;;;;;;5079343;28;20035;-83
2022/02/23 04:51:07;;;;;;;28.05;4.28;;;5.20;89.90;;;;;;5067192;28;20451;-83
2022/02/23 04:53:32;;;;;;;31.63;4.75;;;5.30;89.70;;;;;;5070215;28;20112;-82
2022/02/23 04:55:58;;;;;;;28.73;4.75;;;5.30;89.50;;;;;;5063213;28;20119;-82
2022/02/23 04:58:24;;;;;;;25.00;4.15;;;5.20;89.60;;;;;;5071113;28;20585;-83
2022/02/23 05:00:50;;;;;;;26.13;3.80;;;5.20;89.70;;;;;;5083223;28;20090;-83
2022/02/23 05:03:16;;;;;;;23.92;3.45;;;5.20;89.60;;;;;;5071897;28;20484;-83
2022/02/23 05:05:42;;;;;;;21.90;3.53;;;5.20;89.50;;;;;;5066748;28;20044;-83
2022/02/23 05:08:08;;;;;;;18.58;3.70;;;5.20;89.40;;;;;;5066565;28;20036;-82
2022/02/23 05:10:34;;;;;;;29.23;3.85;;;5.20;89.40;;;;;;5061283;28;20377;-83
2022/02/23 05:12:59;;;;;;;16.50;3.35;;;5.20;89.30;;;;;;5069899;28;20062;-83
2022/02/23 05:15:25;;;;;;;29.10;4.32;;;5.30;89.30;;;;;;5068290;28;20124;-83
2022/02/23 05:17:51;;;;;;;20.13;4.07;;;5.20;89.50;;;;;;5064455;28;20044;-82
2022/02/23 05:20:16;;;;;;;25.13;3.97;;;5.20;89.30;;;;;;5070397;28;20047;-84
2022/02/23 05:22:45;;;;;;;14.90;3.22;;;5.20;89.40;;;;;;5068758;28;20043;-84
2022/02/23 05:25:11;;;;;;;17.13;3.05;;;5.10;89.70;;;;;;5059958;28;20115;-84
2022/02/23 05:27:37;;;;;;;16.85;3.67;;;5.20;89.70;;;;;;5078883;28;20111;-84
2022/02/23 05:30:03;;;;;;;21.08;3.05;;;5.10;89.90;;;;;;5070806;28;20240;-83
2022/02/23 05:32:28;;;;;;;17.85;3.20;;;5.10;89.90;;;;;;5068528;28;20031;-84
2022/02/23 05:34:54;;;;;;;27.13;3.53;;;5.10;89.80;;;;;;5067248;28;20494;-84
2022/02/23 05:37:19;;;;;;;25.58;4.38;;;5.10;89.60;;;;;;5071160;28;20036;-84
2022/02/23 05:39:45;;;;;;;19.40;3.63;;;5.10;89.50;;;;;;5056337;28;20024;-83
2022/02/23 05:42:10;;;;;;;29.80;3.90;;;5.10;89.70;;;;;;5069199;28;20036;-83
2022/02/23 05:44:36;;;;;;;29.05;3.83;;;5.10;89.70;;;;;;5062685;28;20059;-84
2022/02/23 05:47:02;;;;;;;23.77;4.20;;;5.10;89.50;;;;;;5068742;28;20388;-83
2022/02/23 05:49:27;;;;;;;23.23;3.88;;;5.10;89.50;;;;;;5068273;28;20028;-84
2022/02/23 05:51:52;;;;;;;19.60;3.78;;;5.10;89.60;;;;;;5069312;28;20028;-83
2022/02/23 05:54:18;;;;;;;20.70;3.60;;;5.10;89.70;;;;;;5068398;28;20029;-83
2022/02/23 05:56:44;;;;;;;19.77;3.80;;;5.10;89.80;;;;;;5069768;28;20079;-83
2022/02/23 05:59:10;;;;;;;27.95;4.10;;;5.00;89.90;;;;;;5072632;28;20025;-83
2022/02/23 06:01:36;;;;;;;23.80;3.92;;;5.00;89.90;;;;;;5067816;28;20040;-83
2022/02/23 06:04:01;;;;;;;26.50;4.65;;;5.00;89.80;;;;;;5060165;28;20528;-82
2022/02/23 06:06:27;;;;;;;25.08;4.57;;;5.00;89.70;;;;;;5078912;28;20031;-82
2022/02/23 06:08:53;;;;;;;20.35;4.07;;;5.00;89.90;;;;;;5090121;28;20032;-82
2022/02/23 06:11:19;;;;;;;23.67;3.65;;;5.00;90.00;;;;;;5084329;28;20047;-83
2022/02/23 06:13:51;;;;;;;22.02;3.28;;;5.00;89.70;;;;;;5070658;28;20108;-84
2022/02/23 06:16:27;;;;;;;20.25;3.80;;;5.00;89.50;;;;;;5063392;28;20385;-84
2022/02/23 06:18:54;;;;;;;18.00;3.67;;;5.00;89.60;;;;;;5066646;28;20025;-83
2022/02/23 06:21:20;;;;;;;27.67;5.03;;;5.00;89.50;;;;;;5063791;28;20044;-83
2022/02/23 06:23:46;;;;;;;19.15;3.55;;;5.00;89.30;;;;;;5065619;28;20671;-83
2022/02/23 06:26:12;;;;;;;16.40;2.90;;;5.00;89.40;;;;;;5067222;28;20487;-84
2022/02/23 06:28:38;;;;;;;24.75;3.65;;;5.10;89.20;;;;;;5061628;28;20029;-84
2022/02/23 06:31:07;;;;;;;21.45;3.85;;;5.10;89.00;;;;;;5068099;28;20041;-83
2022/02/23 06:33:33;;;;;;;26.95;4.07;;;5.10;89.10;;;;;;5070434;28;20062;-84
2022/02/23 06:35:59;;;;;;;20.20;4.07;;;5.10;88.90;;;;;;5065445;28;20497;-83
2022/02/23 06:38:24;;;;;;;14.05;3.05;;;5.10;88.90;;;;;;5087361;28;20238;-84
2022/02/23 06:40:50;;;;;;;29.65;4.40;;;5.10;88.90;;;;;;5072053;28;20029;-85
2022/02/23 06:43:18;;;;;;;25.88;4.43;;;5.10;88.70;;;;;;5070377;28;20031;-84
2022/02/23 06:45:45;;;;;;;18.33;3.78;;;5.10;88.90;;;;;;5069908;28;20507;-84
2022/02/23 06:48:11;;;;;;;16.92;3.47;;;5.00;89.30;;;;;;5081136;28;20036;-83
2022/02/23 06:50:37;;;;;;;18.02;3.45;;;5.00;89.40;;;;;;5064723;28;20117;-84
2022/02/23 06:53:03;;;;;;;16.80;3.67;;;4.90;89.60;;;;;;5073284;28;20078;-83
2022/02/23 06:55:28;;;;;;;22.38;3.50;;;4.90;89.70;;;;;;5070455;28;20056;-83
2022/02/23 06:57:54;;;;;;;22.20;3.22;;;4.80;89.80;;;;;;5071375;28;20031;-84
2022/02/23 07:00:19;;;;;;;20.17;3.53;;;4.80;89.90;;;;;;5061777;28;20443;-84
2022/02/23 07:02:45;;;;;;;16.67;3.08;;;4.80;89.90;;;;;;5062495;28;20031;-84
2022/02/23 07:05:11;;;;;;;18.40;2.90;;;4.80;89.80;;;;;;5067415;28;20055;-83
2022/02/23 07:07:37;;;;;;;26.95;4.32;;;4.70;89.80;;;;;;5070311;28;20040;-83
2022/02/23 07:10:22;;;;;;;21.52;4.07;;;4.70;89.90;;;;;;5069426;28;20408;-84
2022/02/23 07:12:48;;;;;;;19.70;3.10;;;4.70;89.90;;;;;;5087761;28;20035;-84
2022/02/23 07:15:15;;;;;;;18.33;3.63;;;4.70;90.10;;;;;;5070084;28;20056;-84
2022/02/23 07:17:41;;;;;;;26.13;3.33;;;4.70;89.90;;;;;;5071719;28;20474;-84
2022/02/23 07:20:08;;;;;;;26.80;3.72;;;4.70;90.00;;;;;;5084994;28;20024;-84
2022/02/23 07:22:33;;;;;;;23.45;4.30;;;4.80;89.70;;;;;;5065478;28;20029;-84
2022/02/23 07:24:59;;;;;;;21.50;3.80;;;4.90;89.60;;;;;;5060595;28;20510;-84
2022/02/23 07:27:26;;;;;;;27.73;4.30;;;5.00;89.50;;;;;;5068701;28;20107;-84
2022/02/23 07:29:52;;;;;;;25.73;4.03;;;5.10;89.10;;;;;;5069472;28;20032;-84
2022/02/23 07:32:22;;;;;;;14.80;3.38;;;5.10;88.90;;;;;;5058482;28;20389;-84
2022/02/23 07:34:49;;;;;;;24.80;3.92;;;5.10;88.80;;;;;;5054769;28;20472;-84
2022/02/23 07:37:15;;;;;;;15.73;3.05;;;5.10;88.80;;;;;;5071812;28;20017;-84
2022/02/23 07:39:41;;;;;;;22.10;3.78;;;5.10;88.90;;;;;;5063872;28;20409;-84
2022/02/23 07:42:07;;;;;;;20.77;3.67;;;5.10;88.80;;;;;;5060518;28;20406;-84
2022/02/23 07:44:33;;;;;;;26.55;3.75;;;5.20;88.80;;;;;;5067453;28;20025;-84
2022/02/23 07:46:59;;;;;;;10.35;2.72;;;5.10;88.90;;;;;;5065977;28;20120;-84
2022/02/23 07:49:26;;;;;;;15.90;3.47;;;5.20;89.00;;;;;;5071848;28;20028;-84
2022/02/23 07:51:52;;;;;;;19.73;3.20;;;5.20;89.00;;;;;;5068590;28;20119;-84
2022/02/23 07:54:17;;;;;;;21.25;3.75;;;5.30;89.00;;;;;;5076105;28;20166;-85
2022/02/23 07:56:43;;;;;;;20.08;4.30;;;5.20;89.00;;;;;;5067777;28;20047;-85
2022/02/23 07:59:09;;;;;;;16.00;3.20;;;5.20;89.00;;;;;;5060484;28;20036;-85
2022/02/23 08:01:37;;;;;;;22.48;3.33;;;5.10;89.20;;;;;;5060682;28;20028;-85
2022/02/23 08:04:05;;;;;;;18.27;3.35;;;5.10;89.30;;;;;;5059716;28;20044;-84
2022/02/23 08:06:32;;;;;;;23.48;3.13;;;5.10;89.40;;;;;;5054647;28;20039;-85
2022/02/23 08:09:02;;;;;;;16.10;3.08;;;5.10;89.40;;;;;;5058527;28;20032;-85
2022/02/23 08:11:29;;;;;;;22.47;3.70;;;5.20;89.30;;;;;;5062338;28;20040;-85
2022/02/23 08:14:02;;;;;;;18.13;3.92;;;5.30;89.30;;;;;;5061482;28;20017;-84
2022/02/23 08:19:36;;;;;;;20.33;3.35;;;5.40;88.90;;;;;;5066732;28;20167;-83
2022/02/23 08:22:12;;;;;;;18.95;3.30;;;5.50;88.80;;;;;;5065281;28;20036;-83
2022/02/23 08:24:41;;;;;;;29.30;4.55;;;5.50;88.80;;;;;;5063503;28;20024;-82
2022/02/23 08:27:09;;;;;;;29.88;4.50;;;5.60;88.80;;;;;;5065442;28;20029;-83
2022/02/23 08:29:35;;;;;;;19.02;3.53;;;5.60;88.60;;;;;;5068353;28;20025;-83
2022/02/23 08:32:01;;;;;;;21.60;3.35;;;5.70;88.80;;;;;;5058412;28;20551;-83
2022/02/23 08:34:27;;;;;;;22.15;3.90;;;5.60;88.50;;;;;;5064309;28;20020;-83
2022/02/23 08:36:53;;;;;;;24.20;3.88;;;5.70;88.70;;;;;;5073498;28;20029;-82
2022/02/23 08:39:19;;;;;;;19.90;3.88;;;5.80;88.60;;;;;;5065576;28;20055;-82
2022/02/23 08:41:46;;;;;;;18.27;4.15;;;5.80;88.40;;;;;;5065521;28;20097;-82
2022/02/23 08:44:12;;;;;;;21.10;3.85;;;5.80;88.40;;;;;;5064175;28;20083;-83
2022/02/23 08:46:40;;;;;;;19.85;4.10;;;6.00;87.90;;;;;;5069853;28;20476;-82
2022/02/23 08:49:09;;;;;;;13.65;3.03;;;5.90;87.80;;;;;;5070239;28;20434;-83
2022/02/23 08:51:37;;;;;;;21.05;4.63;;;5.80;87.60;;;;;;5067952;28;20118;-83
2022/02/23 08:54:04;;;;;;;13.15;3.45;;;6.10;87.60;;;;;;5059366;28;20025;-82
2022/02/23 08:56:29;;;;;;;28.48;4.10;;;6.10;87.30;;;;;;5067022;28;20021;-83
2022/02/23 08:58:55;;;;;;;16.55;3.97;;;6.10;87.60;;;;;;5072674;28;20024;-83
2022/02/23 09:01:22;;;;;;;17.60;3.83;;;6.10;87.10;;;;;;5064258;28;20116;-83
2022/02/23 09:03:47;;;;;;;14.75;3.50;;;6.30;87.00;;;;;;5066641;28;20075;-83
2022/02/23 09:06:13;;;;;;;24.50;4.25;;;6.10;86.80;;;;;;5060129;28;20055;-83
2022/02/23 09:08:39;;;;;;;26.15;3.97;;;6.20;87.30;;;;;;5066478;28;20028;-83
2022/02/23 09:11:04;;;;;;;25.08;4.68;;;6.30;87.20;;;;;;5054691;28;20123;-83
2022/02/23 09:13:30;;;;;;;17.00;3.95;;;6.50;86.70;;;;;;5060523;28;20083;-83
2022/02/23 09:15:56;;;;;;;16.35;3.30;;;6.60;86.30;;;;;;5068997;28;20037;-83
2022/02/23 09:18:21;;;;;;;23.05;3.92;;;6.50;86.00;;;;;;5082698;28;21200;-83
2022/02/23 09:20:47;;;;;;;26.63;4.13;;;6.60;85.70;;;;;;5069118;28;20037;-83
2022/02/23 09:23:15;;;;;;;22.08;4.18;;;6.60;86.00;;;;;;5060544;28;20060;-84
2022/02/23 09:25:40;;;;;;;22.58;3.90;;;6.90;85.80;;;;;;5065384;28;20048;-83
2022/02/23 09:28:06;;;;;;;22.08;3.78;;;7.00;85.80;;;;;;5068368;28;20397;-83
2022/02/23 09:30:31;;;;;;;19.85;4.25;;;7.00;84.70;;;;;;5066298;28;20120;-84
2022/02/23 09:32:57;;;;;;;19.05;4.28;;;7.10;84.60;;;;;;5065949;28;20531;-84
2022/02/23 09:35:24;;;;;;;27.40;4.60;;;6.90;84.70;;;;;;5068414;28;20396;-83
2022/02/23 09:37:49;;;;;;;12.65;3.15;;;6.80;85.40;;;;;;5073041;28;20020;-83
2022/02/23 09:40:15;;;;;;;19.73;3.33;;;6.90;84.20;;;;;;5070567;28;20519;-83
2022/02/23 09:42:45;;;;;;;19.08;3.88;;;7.30;84.30;;;;;;5056938;28;20039;-82
2022/02/23 09:45:12;;;;;;;14.43;3.30;;;7.20;83.90;;;;;;5069779;28;20035;-83
2022/02/23 09:47:38;;;;;;;15.07;3.30;;;7.20;83.80;;;;;;5063389;28;20036;-83
2022/02/23 09:50:06;;;;;;;17.65;3.83;;;7.40;83.70;;;;;;5071771;28;20515;-83
2022/02/23 09:52:32;;;;;;;20.60;4.32;;;7.50;82.70;;;;;;5069729;28;20098;-83
2022/02/23 09:55:00;;;;;;;25.52;4.35;;;7.60;82.20;;;;;;5076665;28;20075;-83
2022/02/23 09:57:26;;;;;;;23.98;3.83;;;7.90;82.30;;;;;;5070539;28;20028;-83
2022/02/23 09:59:52;;;;;;;17.52;4.20;;;7.80;80.30;;;;;;5059136;28;20163;-83
2022/02/23 10:02:18;;;;;;;19.33;3.10;;;8.00;80.60;;;;;;5070872;28;20574;-83
2022/02/23 10:04:44;;;;;;;12.65;3.28;;;8.10;80.70;;;;;;5068005;28;20040;-84
2022/02/23 10:07:11;;;;;;;19.00;3.45;;;8.20;80.30;;;;;;5070790;28;20411;-83
2022/02/23 10:09:42;;;;;;;20.90;3.50;;;8.10;79.50;;;;;;5068438;28;20127;-83
2022/02/23 10:12:08;;;;;;;15.95;2.65;;;8.10;79.70;;;;;;5064748;28;20916;-83
2022/02/23 10:14:34;;;;;;;14.77;3.45;;;8.10;78.90;;;;;;5073041;28;20116;-83
2022/02/23 10:16:59;;;;;;;18.88;3.10;;;8.20;79.30;;;;;;5073048;28;20071;-83
2022/02/23 10:19:25;;;;;;;13.60;2.53;;;8.40;79.20;;;;;;5070556;28;20021;-84
2022/02/23 10:22:01;;;;;;;17.55;2.75;;;8.00;79.60;;;;;;5065298;28;20489;-83
2022/02/23 10:24:31;;;;;;;19.45;3.05;;;7.90;79.80;;;;;;5069931;28;20091;-83
2022/02/23 10:27:08;;;;;;;15.60;3.03;;;8.20;79.40;;;;;;5083491;28;20029;-83
2022/02/23 10:29:36;;;;;;;10.20;2.80;;;8.40;79.10;;;;;;5066089;28;20029;-83
2022/02/23 10:32:08;;;;;;;14.07;2.90;;;8.70;78.70;;;;;;5064815;28;20071;-83
2022/02/23 10:34:55;;;;;;;11.00;2.60;;;8.70;78.30;;;;;;5063573;28;20483;-83
2022/02/23 10:37:22;;;;;;;13.07;3.28;;;8.80;76.90;;;;;;5071884;28;20024;-83
2022/02/23 10:39:50;;;;;;;10.60;2.42;;;8.90;76.70;;;;;;5063792;28;20028;-83
2022/02/23 10:42:19;;;;;;;16.50;3.00;;;9.10;76.80;;;;;;5070282;28;20012;-83
2022/02/23 10:44:50;;;;;;;13.15;2.78;;;9.10;76.00;;;;;;5073328;28;20188;-83
2022/02/23 10:47:29;;;;;;;14.07;2.75;;;9.10;75.90;;;;;;5064671;28;20396;-83
2022/02/23 10:50:16;;;;;;;14.48;2.63;;;9.00;76.60;;;;;;5079585;28;20508;-83
2022/02/23 10:52:51;;;;;;;15.02;3.03;;;9.40;76.20;;;;;;5070339;28;20021;-83
2022/02/23 10:55:24;;;;;;;11.25;2.50;;;9.10;74.50;;;;;;5064696;28;20766;-83
2022/02/23 10:57:56;;;;;;;8.77;2.22;;;9.10;75.10;;;;;;5078095;28;20047;-83
2022/02/23 11:00:34;;;;;;;14.02;2.53;;;9.10;74.90;;;;;;5069276;28;20086;-83
2022/02/23 11:03:00;;;;;;;10.13;2.47;;;8.90;74.00;;;;;;5071368;28;20166;-83
2022/02/23 11:05:27;;;;;;;12.85;2.22;;;9.10;74.80;;;;;;5062811;28;20055;-83
2022/02/23 11:07:55;;;;;;;8.13;2.22;;;9.10;73.80;;;;;;5071697;28;20036;-83
2022/02/23 11:10:21;;;;;;;14.35;2.70;;;8.90;72.90;;;;;;5084224;28;20367;-82
2022/02/23 11:12:52;;;;;;;11.52;2.60;;;9.10;72.60;;;;;;5057211;28;20017;-82
2022/02/23 11:15:20;;;;;;;12.68;2.50;;;9.20;71.60;;;;;;5066807;28;20508;-83
2022/02/23 11:17:48;;;;;;;15.07;2.15;;;9.20;70.40;;;;;;5071336;28;20121;-82
2022/02/23 11:20:21;;;;;;;11.00;2.03;;;9.40;69.40;;;;;;5068006;28;20032;-83
2022/02/23 11:22:56;;;;;;;13.32;2.33;;;9.60;68.70;;;;;;5068479;28;20040;-83
2022/02/23 11:25:23;;;;;;;13.98;2.13;;;9.50;69.10;;;;;;5071114;28;20181;-83
2022/02/23 11:27:56;;;;;;;10.18;2.22;;;9.50;70.10;;;;;;5072861;28;20028;-84
2022/02/23 11:30:28;;;;;;;12.73;2.08;;;9.70;69.10;;;;;;5070068;28;20024;-83
2022/02/23 11:32:54;;;;;;;11.35;2.33;;;10.00;68.20;;;;;;5067975;28;20092;-83
2022/02/23 11:35:49;;;;;;;8.52;2.03;;;10.10;67.70;;;;;;5067859;28;20029;-83
2022/02/23 11:38:24;;;;;;;10.13;2.10;;;9.90;69.20;;;;;;5067721;28;20064;-83
2022/02/23 11:40:59;;;;;;;10.45;2.55;;;9.80;66.60;;;;;;5063043;28;20033;-83
2022/02/23 11:43:26;;;;;;;10.10;1.85;;;9.70;66.90;;;;;;5069378;28;20036;-83
2022/02/23 11:45:56;;;;;;;12.52;2.50;;;9.30;68.00;;;;;;5071503;28;20043;-84
2022/02/23 11:48:22;;;;;;;8.25;2.00;;;9.30;68.40;;;;;;5069632;28;20028;-83
2022/02/23 11:51:04;;;;;;;10.25;2.05;;;9.90;67.90;;;;;;5068879;28;20480;-83
2022/02/23 11:53:37;;;;;;;12.43;2.08;;;9.80;66.40;;;;;;5058075;28;20180;-83
2022/02/23 11:56:15;;;;;;;10.80;1.98;;;10.00;66.20;;;;;;5063133;28;20036;-84
2022/02/23 11:58:45;;;;;;;8.23;1.60;;;9.90;66.60;;;;;;5070917;28;20152;-83
2022/02/23 12:01:12;;;;;;;9.45;2.42;;;9.30;67.50;;;;;;5071588;28;20036;-82
2022/02/23 12:03:37;;;;;;;7.82;1.42;;;9.90;67.40;;;;;;5068566;28;20028;-82
2022/02/23 12:06:06;;;;;;;8.50;1.88;;;9.90;65.30;;;;;;5069823;28;20170;-83
2022/02/23 12:08:31;;;;;;;12.48;1.85;;;10.00;65.30;;;;;;5067527;28;20025;-82
2022/02/23 12:11:17;;;;;;;7.05;1.40;;;10.30;64.70;;;;;;5069235;28;20034;-83
2022/02/23 12:13:55;;;;;;;5.95;1.35;;;10.40;64.70;;;;;;5040936;28;20037;-83
2022/02/23 12:16:24;;;;;;;6.15;1.52;;;10.30;63.00;;;;;;5066941;28;20488;-83
2022/02/23 12:19:01;;;;;;;5.13;1.25;;;10.20;62.70;;;;;;5059582;28;20023;-83
2022/02/23 12:21:54;;;;;;;8.65;1.73;;;10.30;62.40;;;;;;5054023;28;20029;-82
2022/02/23 12:24:22;;;;;;;6.60;1.42;;;10.20;62.40;;;;;;5065293;28;20465;-83
2022/02/23 12:26:54;;;;;;;7.03;1.67;;;10.20;63.70;;;;;;5061194;28;20032;-82
2022/02/23 12:29:25;;;;;;;7.68;1.55;;;10.40;62.50;;;;;;5068730;28;20641;-83
2022/02/23 12:31:52;;;;;;;8.90;1.63;;;10.50;61.70;;;;;;5060667;28;20119;-83
2022/02/23 12:34:25;;;;;;;4.78;1.58;;;11.10;63.20;;;;;;5065281;28;20032;-83
2022/02/23 12:36:53;;;;;;;6.32;1.35;;;11.40;61.50;;;;;;5073937;28;20036;-83
2022/02/23 12:39:29;;;;;;;4.50;1.00;;;11.00;61.00;;;;;;5070136;28;20469;-83
2022/02/23 12:42:02;;;;;;;6.35;1.10;;;11.10;59.60;;;;;;5068972;28;20032;-82
2022/02/23 12:44:31;;;;;;;4.78;1.00;;;11.10;58.90;;;;;;5071884;28;20027;-83
2022/02/23 12:46:59;;;;;;;5.30;0.90;;;11.30;58.10;;;;;;5063089;28;20029;-83
2022/02/23 12:49:26;;;;;;;3.38;0.80;;;11.50;57.20;;;;;;5068414;28;20476;-83
2022/02/23 12:51:53;;;;;;;4.10;0.63;;;11.00;57.70;;;;;;5062988;28;20031;-82